Time;durP1;ratioP1;P1;durP2;ratioP2;P2;SDS_P1;SDS_P2;PMS_P1;PMS_P2;Temp;Humidity;BMP_temperature;BMP_pressure;BME280_temperature;BME280_humidity;BME280_pressure;Samples;Min_cycle;Max_cycle;Signal;HPM_P1;HPM_P2
2023/04/26 00:02:17;;;;;;;;;;;;;;;;;;5093527;28;2024;-39
2023/04/26 00:04:46;;;;;;;;;;;;;;;;;;5092892;28;2031;-39
2023/04/26 00:07:14;;;;;;;;;;;;;;;;;;5093031;28;1812;-40
2023/04/26 00:09:43;;;;;;;;;;;;;;;;;;5092872;28;1948;-40
2023/04/26 00:12:10;;;;;;;;;;;;;;;;;;5092865;28;1901;-39
2023/04/26 00:14:38;;;;;;;;;;;;;;;;;;5092897;28;2069;-39
2023/04/26 00:17:09;;;;;;;;;;;;;;;;;;5074512;28;1875;-39
2023/04/26 00:19:37;;;;;;;;;;;;;;;;;;5092899;28;1872;-39
2023/04/26 00:22:05;;;;;;;;;;;;;;;;;;5092561;28;1994;-52
2023/04/26 00:24:34;;;;;;;;;;;;;;;;;;5092901;28;2006;-39
2023/04/26 00:27:07;;;;;;;;;;;;;;;;;;5092511;28;2002;-38
2023/04/26 00:29:35;;;;;;;;;;;;;;;;;;5092713;28;1974;-43
2023/04/26 00:32:02;;;;;;;;;;;;;;;;;;5092649;28;1973;-39
2023/04/26 00:34:33;;;;;;;;;;;;;;;;;;5092354;28;1844;-39
2023/04/26 00:37:00;;;;;;;;;;;;;;;;;;5092409;28;1921;-41
2023/04/26 00:39:28;;;;;;;;;;;;;;;;;;5074228;28;2267;-39
2023/04/26 00:41:55;;;;;;;;;;;;;;;;;;5074503;28;2038;-38
2023/04/26 00:44:24;;;;;;;;;;;;;;;;;;5074247;28;1546;-39
2023/04/26 00:46:53;;;;;;;;;;;;;;;;;;5092001;28;2074;-39
2023/04/26 00:49:21;;;;;;;;;;;;;;;;;;5092073;28;1936;-39
2023/04/26 00:51:50;;;;;;;;;;;;;;;;;;5073857;28;1994;-39
2023/04/26 00:54:18;;;;;;;;;;;;;;;;;;5104091;28;1907;-39
2023/04/26 00:56:46;;;;;;;;;;;;;;;;;;5094085;28;1802;-39
2023/04/26 00:59:13;;;;;;;;;;;;;;;;;;5112446;28;1941;-38
2023/04/26 01:01:41;;;;;;;;;;;;;;;;;;5112398;28;2317;-39
2023/04/26 01:04:08;;;;;;;;;;;;;;;;;;5112305;28;1982;-39
2023/04/26 01:06:37;;;;;;;;;;;;;;;;;;5112381;28;1874;-40
2023/04/26 01:09:08;;;;;;;;;;;;;;;;;;5112230;28;1911;-39
2023/04/26 01:11:36;;;;;;;;;;;;;;;;;;5112164;28;1874;-39
2023/04/26 01:14:04;;;;;;;;;;;;;;;;;;5111965;28;1858;-39
2023/04/26 01:16:31;;;;;;;;;;;;;;;;;;5093835;28;2014;-46
2023/04/26 01:19:06;;;;;;;;;;;;;;;;;;5112212;28;1911;-39
2023/04/26 01:21:33;;;;;;;;;;;;;;;;;;5111974;28;1837;-49
2023/04/26 01:24:01;;;;;;;;;;;;;;;;;;5111589;28;1854;-39
2023/04/26 01:26:29;;;;;;;;;;;;;;;;;;5111750;28;1796;-39
2023/04/26 01:28:56;;;;;;;;;;;;;;;;;;5111743;28;1977;-42
2023/04/26 01:31:24;;;;;;;;;;;;;;;;;;5112207;28;2051;-44
2023/04/26 01:33:51;;;;;;;;;;;;;;;;;;5111632;28;1981;-39
2023/04/26 01:36:18;;;;;;;;;;;;;;;;;;5111739;28;1868;-39
2023/04/26 01:38:45;;;;;;;;;;;;;;;;;;5111864;28;2009;-39
2023/04/26 01:41:12;;;;;;;;;;;;;;;;;;5111694;28;2146;-40
2023/04/26 01:43:39;;;;;;;;;;;;;;;;;;5093443;28;1691;-39
2023/04/26 01:46:07;;;;;;;;;;;;;;;;;;5111209;28;1983;-38
2023/04/26 01:48:34;;;;;;;;;;;;;;;;;;5111874;28;2158;-45
2023/04/26 01:51:01;;;;;;;;;;;;;;;;;;5111391;28;2023;-38
2023/04/26 01:53:28;;;;;;;;;;;;;;;;;;5111712;28;2016;-39
2023/04/26 01:55:59;;;;;;;;;;;;;;;;;;5093726;28;1955;-42
2023/04/26 01:58:26;;;;;;;;;;;;;;;;;;5093281;28;2024;-40
2023/04/26 02:00:53;;;;;;;;;;;;;;;;;;5093280;28;1945;-39
2023/04/26 02:03:21;;;;;;;;;;;;;;;;;;5093131;28;2026;-39
2023/04/26 02:05:49;;;;;;;;;;;;;;;;;;5093412;28;2305;-39
2023/04/26 02:08:16;;;;;;;;;;;;;;;;;;5111336;28;2047;-39
2023/04/26 02:10:45;;;;;;;;;;;;;;;;;;5111450;28;1984;-39
2023/04/26 02:13:13;;;;;;;;;;;;;;;;;;5111546;28;2105;-39
2023/04/26 02:15:41;;;;;;;;;;;;;;;;;;5111566;28;1875;-42
2023/04/26 02:18:08;;;;;;;;;;;;;;;;;;5111137;28;1756;-47
2023/04/26 02:20:36;;;;;;;;;;;;;;;;;;5092955;28;1904;-39
2023/04/26 02:23:04;;;;;;;;;;;;;;;;;;5111201;28;2107;-39
2023/04/26 02:25:31;;;;;;;;;;;;;;;;;;5111616;28;1956;-42
2023/04/26 02:27:58;;;;;;;;;;;;;;;;;;5111681;28;1977;-39
2023/04/26 02:30:27;;;;;;;;;;;;;;;;;;5092918;28;2193;-39
2023/04/26 02:32:54;;;;;;;;;;;;;;;;;;5097108;28;2063;-39
2023/04/26 02:35:22;;;;;;;;;;;;;;;;;;5090759;28;2152;-38
2023/04/26 02:37:51;;;;;;;;;;;;;;;;;;5093463;28;1937;-38
2023/04/26 02:40:18;;;;;;;;;;;;;;;;;;5094726;28;1916;-39
2023/04/26 02:42:45;;;;;;;;;;;;;;;;;;5098356;28;2052;-39
2023/04/26 02:45:13;;;;;;;;;;;;;;;;;;5096606;28;1799;-39
2023/04/26 02:47:40;;;;;;;;;;;;;;;;;;5096434;28;2101;-38
2023/04/26 02:50:08;;;;;;;;;;;;;;;;;;5115028;28;1947;-39
2023/04/26 02:52:36;;;;;;;;;;;;;;;;;;5096679;28;2360;-39
2023/04/26 02:55:03;;;;;;;;;;;;;;;;;;5093195;28;1969;-39
2023/04/26 02:57:31;;;;;;;;;;;;;;;;;;5086898;28;2179;-39
2023/04/26 02:59:58;;;;;;;;;;;;;;;;;;5114829;28;2150;-39
2023/04/26 03:02:26;;;;;;;;;;;;;;;;;;5096731;28;2006;-38
2023/04/26 03:04:54;;;;;;;;;;;;;;;;;;5095892;28;2246;-39
2023/04/26 03:07:21;;;;;;;;;;;;;;;;;;5114179;28;1985;-39
2023/04/26 03:09:49;;;;;;;;;;;;;;;;;;5114442;28;1906;-40
2023/04/26 03:12:17;;;;;;;;;;;;;;;;;;5096118;28;2015;-39
2023/04/26 03:14:44;;;;;;;;;;;;;;;;;;5114722;28;1733;-38
2023/04/26 03:17:11;;;;;;;;;;;;;;;;;;5096192;28;1978;-39
2023/04/26 03:19:38;;;;;;;;;;;;;;;;;;5096073;28;1738;-38
2023/04/26 03:22:06;;;;;;;;;;;;;;;;;;5114520;28;2118;-39
2023/04/26 03:24:33;;;;;;;;;;;;;;;;;;5096064;28;1954;-45
2023/04/26 03:27:01;;;;;;;;;;;;;;;;;;5098158;28;2023;-46
2023/04/26 03:29:28;;;;;;;;;;;;;;;;;;5093495;28;2123;-39
2023/04/26 03:31:55;;;;;;;;;;;;;;;;;;5075678;28;1956;-39
2023/04/26 03:34:23;;;;;;;;;;;;;;;;;;5075493;28;2066;-38
2023/04/26 03:36:50;;;;;;;;;;;;;;;;;;5075750;28;1971;-39
2023/04/26 03:39:18;;;;;;;;;;;;;;;;;;5075474;28;1892;-38
2023/04/26 03:41:45;;;;;;;;;;;;;;;;;;5075288;28;1987;-38
2023/04/26 03:44:14;;;;;;;;;;;;;;;;;;5092290;28;2037;-39
2023/04/26 03:46:42;;;;;;;;;;;;;;;;;;5075030;28;2406;-39
2023/04/26 03:49:09;;;;;;;;;;;;;;;;;;5074824;28;1907;-39
2023/04/26 03:51:36;;;;;;;;;;;;;;;;;;5075443;28;2128;-39
2023/04/26 03:54:04;;;;;;;;;;;;;;;;;;5081864;28;2216;-39
2023/04/26 03:56:31;;;;;;;;;;;;;;;;;;5075441;28;1995;-39
2023/04/26 03:58:58;;;;;;;;;;;;;;;;;;5074956;28;1976;-39
2023/04/26 04:01:27;;;;;;;;;;;;;;;;;;5075033;28;1964;-40
2023/04/26 04:03:54;;;;;;;;;;;;;;;;;;5075160;28;1798;-39
2023/04/26 04:06:22;;;;;;;;;;;;;;;;;;5092828;28;1960;-39
2023/04/26 04:08:49;;;;;;;;;;;;;;;;;;5074758;28;1986;-40
2023/04/26 04:11:16;;;;;;;;;;;;;;;;;;5074842;28;2148;-39
2023/04/26 04:13:44;;;;;;;;;;;;;;;;;;5092916;28;2080;-39
2023/04/26 04:16:12;;;;;;;;;;;;;;;;;;5074709;28;1813;-40
2023/04/26 04:18:39;;;;;;;;;;;;;;;;;;5092977;28;2146;-40
2023/04/26 04:21:07;;;;;;;;;;;;;;;;;;5093078;28;2043;-41
2023/04/26 04:23:34;;;;;;;;;;;;;;;;;;5074468;28;2251;-49
2023/04/26 04:26:06;;;;;;;;;;;;;;;;;;5074844;28;2043;-46
2023/04/26 04:28:33;;;;;;;;;;;;;;;;;;5092387;28;2037;-44
2023/04/26 04:31:01;;;;;;;;;;;;;;;;;;5074426;28;1988;-49
2023/04/26 04:33:28;;;;;;;;;;;;;;;;;;5092496;28;1866;-40
2023/04/26 04:35:57;;;;;;;;;;;;;;;;;;5074306;28;2202;-40
2023/04/26 04:38:24;;;;;;;;;;;;;;;;;;5074347;28;2265;-40
2023/04/26 04:40:52;;;;;;;;;;;;;;;;;;5074124;28;2542;-39
2023/04/26 04:43:20;;;;;;;;;;;;;;;;;;5074318;28;2027;-44
2023/04/26 04:45:48;;;;;;;;;;;;;;;;;;5073565;28;2053;-39
2023/04/26 04:48:15;;;;;;;;;;;;;;;;;;5074246;28;2028;-39
2023/04/26 04:50:43;;;;;;;;;;;;;;;;;;5074139;28;1961;-39
2023/04/26 04:53:13;;;;;;;;;;;;;;;;;;5074277;28;2178;-39
2023/04/26 04:55:41;;;;;;;;;;;;;;;;;;5074249;28;1839;-53
2023/04/26 04:58:11;;;;;;;;;;;;;;;;;;5074052;28;1929;-47
2023/04/26 05:00:38;;;;;;;;;;;;;;;;;;5090340;28;1995;-40
2023/04/26 05:03:15;;;;;;;;;;;;;;;;;;5073866;28;2019;-40
2023/04/26 05:05:44;;;;;;;;;;;;;;;;;;5090760;28;1919;-39
2023/04/26 05:08:11;;;;;;;;;;;;;;;;;;5092295;28;2041;-40
2023/04/26 05:10:38;;;;;;;;;;;;;;;;;;5092109;28;1969;-39
2023/04/26 05:13:06;;;;;;;;;;;;;;;;;;5091866;28;1964;-47
2023/04/26 05:15:33;;;;;;;;;;;;;;;;;;5073863;28;1900;-40
2023/04/26 05:18:01;;;;;;;;;;;;;;;;;;5073889;28;2107;-60
2023/04/26 05:20:28;;;;;;;;;;;;;;;;;;5073771;28;1755;-44
2023/04/26 05:22:55;;;;;;;;;;;;;;;;;;5073525;28;2087;-40
2023/04/26 05:25:22;;;;;;;;;;;;;;;;;;5091683;28;1859;-40
2023/04/26 05:27:56;;;;;;;;;;;;;;;;;;5073509;28;1816;-39
2023/04/26 05:30:42;;;;;;;;;;;;;;;;;;5073656;28;1912;-39
2023/04/26 05:33:32;;;;;;;;;;;;;;;;;;5089599;28;2111;-40
2023/04/26 05:36:15;;;;;;;;;;;;;;;;;;5073338;28;2160;-40
2023/04/26 05:38:42;;;;;;;;;;;;;;;;;;5091685;28;1594;-40
2023/04/26 05:41:10;;;;;;;;;;;;;;;;;;5090670;28;1958;-42
2023/04/26 05:43:39;;;;;;;;;;;;;;;;;;5072497;28;2087;-38
2023/04/26 05:46:06;;;;;;;;;;;;;;;;;;5068743;28;2013;-40
2023/04/26 05:48:33;;;;;;;;;;;;;;;;;;5069655;28;1854;-40
2023/04/26 05:51:01;;;;;;;;;;;;;;;;;;5071029;28;1989;-39
2023/04/26 05:53:29;;;;;;;;;;;;;;;;;;5069794;28;2305;-40
2023/04/26 05:55:56;;;;;;;;;;;;;;;;;;5069248;28;1852;-39
2023/04/26 05:58:23;;;;;;;;;;;;;;;;;;5069658;28;1877;-39
2023/04/26 06:00:50;;;;;;;;;;;;;;;;;;5076496;28;1926;-39
2023/04/26 06:03:18;;;;;;;;;;;;;;;;;;5091044;28;1892;-39
2023/04/26 06:05:45;;;;;;;;;;;;;;;;;;5090114;28;2132;-40
2023/04/26 06:08:13;;;;;;;;;;;;;;;;;;5090043;28;1894;-53
2023/04/26 06:10:40;;;;;;;;;;;;;;;;;;5091898;28;1985;-39
2023/04/26 06:13:07;;;;;;;;;;;;;;;;;;5095588;28;1959;-39
2023/04/26 06:15:36;;;;;;;;;;;;;;;;;;5093783;28;1758;-40
2023/04/26 06:18:05;;;;;;;;;;;;;;;;;;5094045;28;2090;-39
2023/04/26 06:20:32;;;;;;;;;;;;;;;;;;5095338;28;1882;-40
2023/04/26 06:22:59;;;;;;;;;;;;;;;;;;5093933;28;2158;-40
2023/04/26 06:25:27;;;;;;;;;;;;;;;;;;5093982;28;1983;-40
2023/04/26 06:27:57;;;;;;;;;;;;;;;;;;5093766;28;2188;-39
2023/04/26 06:30:25;;;;;;;;;;;;;;;;;;5093856;28;2177;-57
2023/04/26 06:32:53;;;;;;;;;;;;;;;;;;5093623;28;1993;-40
2023/04/26 06:35:22;;;;;;;;;;;;;;;;;;5094814;28;2103;-50
2023/04/26 06:37:49;;;;;;;;;;;;;;;;;;5093676;28;1992;-47
2023/04/26 06:40:16;;;;;;;;;;;;;;;;;;5093727;28;1883;-48
2023/04/26 06:42:44;;;;;;;;;;;;;;;;;;5094924;28;1929;-42
2023/04/26 06:45:43;;;;;;;;;;;;;;;;;;5086819;28;1733;-40
2023/04/26 06:48:11;;;;;;;;;;;;;;;;;;5096952;28;2153;-40
2023/04/26 06:50:39;;;;;;;;;;;;;;;;;;5096671;28;1987;-51
2023/04/26 06:53:06;;;;;;;;;;;;;;;;;;5114927;28;1920;-40
2023/04/26 06:55:34;;;;;;;;;;;;;;;;;;5114909;28;1907;-43
2023/04/26 06:58:01;;;;;;;;;;;;;;;;;;5114847;28;2148;-42
2023/04/26 07:00:28;;;;;;;;;;;;;;;;;;5114732;28;2117;-39
2023/04/26 07:02:56;;;;;;;;;;;;;;;;;;5114058;28;2031;-40
2023/04/26 07:05:23;;;;;;;;;;;;;;;;;;5114576;28;1940;-41
2023/04/26 07:07:50;;;;;;;;;;;;;;;;;;5114761;28;1929;-39
2023/04/26 07:10:17;;;;;;;;;;;;;;;;;;5096384;28;1933;-39
2023/04/26 07:12:45;;;;;;;;;;;;;;;;;;5114646;28;2091;-40
2023/04/26 07:15:12;;;;;;;;;;;;;;;;;;5114640;28;2041;-40
2023/04/26 07:17:39;;;;;;;;;;;;;;;;;;5114642;28;1823;-39
2023/04/26 07:20:07;;;;;;;;;;;;;;;;;;5114193;28;1897;-41
2023/04/26 07:22:34;;;;;;;;;;;;;;;;;;5113496;28;2150;-40
2023/04/26 07:25:01;;;;;;;;;;;;;;;;;;5114566;28;2067;-40
2023/04/26 07:27:29;;;;;;;;;;;;;;;;;;5095945;28;2002;-40
2023/04/26 07:29:56;;;;;;;;;;;;;;;;;;5114365;28;1811;-45
2023/04/26 07:32:23;;;;;;;;;;;;;;;;;;5114007;28;2044;-47
2023/04/26 07:34:50;;;;;;;;;;;;;;;;;;5114146;28;2069;-50
2023/04/26 07:37:17;;;;;;;;;;;;;;;;;;5114757;28;1893;-40
2023/04/26 07:39:44;;;;;;;;;;;;;;;;;;5113757;28;1933;-42
2023/04/26 07:42:11;;;;;;;;;;;;;;;;;;5113944;28;1966;-40
2023/04/26 07:44:39;;;;;;;;;;;;;;;;;;5114062;28;1875;-46
2023/04/26 07:47:13;;;;;;;;;;;;;;;;;;5113752;28;1928;-48
2023/04/26 07:49:40;;;;;;;;;;;;;;;;;;5114085;28;1763;-40
2023/04/26 07:52:07;;;;;;;;;;;;;;;;;;5113923;28;1965;-53
2023/04/26 07:54:35;;;;;;;;;;;;;;;;;;5099225;28;1746;-40
2023/04/26 07:57:02;;;;;;;;;;;;;;;;;;5093374;28;1993;-41
2023/04/26 07:59:29;;;;;;;;;;;;;;;;;;5093335;28;1997;-54
2023/04/26 08:02:00;;;;;;;;;;;;;;;;;;5093162;28;1787;-41
2023/04/26 08:04:32;;;;;;;;;;;;;;;;;;5093358;28;1749;-45
2023/04/26 08:07:03;;;;;;;;;;;;;;;;;;5092844;28;2161;-43
2023/04/26 08:09:30;;;;;;;;;;;;;;;;;;5093212;28;1961;-50
2023/04/26 08:12:00;;;;;;;;;;;;;;;;;;5092973;28;1911;-40
2023/04/26 08:14:29;;;;;;;;;;;;;;;;;;5093007;28;2096;-39
2023/04/26 08:16:56;;;;;;;;;;;;;;;;;;5093161;28;1939;-39
2023/04/26 08:19:25;;;;;;;;;;;;;;;;;;5093339;28;2059;-55
2023/04/26 08:21:52;;;;;;;;;;;;;;;;;;5092958;28;2100;-39
2023/04/26 08:24:19;;;;;;;;;;;;;;;;;;5092868;28;1962;-40
2023/04/26 08:26:47;;;;;;;;;;;;;;;;;;5092447;28;1966;-45
2023/04/26 08:29:16;;;;;;;;;;;;;;;;;;5092893;28;2001;-40
2023/04/26 08:31:43;;;;;;;;;;;;;;;;;;5092716;28;2020;-40
2023/04/26 08:34:10;;;;;;;;;;;;;;;;;;5092483;28;2191;-40
2023/04/26 08:36:37;;;;;;;;;;;;;;;;;;5092459;28;1842;-38
2023/04/26 08:39:04;;;;;;;;;;;;;;;;;;5092476;28;1939;-40
2023/04/26 08:41:35;;;;;;;;;;;;;;;;;;5092328;28;1978;-40
2023/04/26 08:44:07;;;;;;;;;;;;;;;;;;5092085;28;2000;-40
2023/04/26 08:46:51;;;;;;;;;;;;;;;;;;5092606;28;2168;-44
2023/04/26 08:49:29;;;;;;;;;;;;;;;;;;5092134;28;2014;-40
2023/04/26 08:51:57;;;;;;;;;;;;;;;;;;5092270;28;2121;-49
2023/04/26 08:54:24;;;;;;;;;;;;;;;;;;5087317;28;2020;-53
2023/04/26 08:56:52;;;;;;;;;;;;;;;;;;5113009;28;1990;-40
2023/04/26 08:59:19;;;;;;;;;;;;;;;;;;5112571;28;1610;-40
2023/04/26 09:01:46;;;;;;;;;;;;;;;;;;5112328;28;1922;-39
2023/04/26 09:04:14;;;;;;;;;;;;;;;;;;5112313;28;1877;-40
2023/04/26 09:06:43;;;;;;;;;;;;;;;;;;5112510;28;2042;-39
2023/04/26 09:09:12;;;;;;;;;;;;;;;;;;5112316;28;1978;-40
2023/04/26 09:11:55;;;;;;;;;;;;;;;;;;5112138;28;2097;-40
2023/04/26 09:14:23;;;;;;;;;;;;;;;;;;5112471;28;2115;-40
2023/04/26 09:16:51;;;;;;;;;;;;;;;;;;5111760;28;1955;-39
2023/04/26 09:19:36;;;;;;;;;;;;;;;;;;5112234;28;1958;-40
2023/04/26 09:22:03;;;;;;;;;;;;;;;;;;5112191;28;1962;-39
2023/04/26 09:24:47;;;;;;;;;;;;;;;;;;5112167;28;1940;-50
2023/04/26 09:27:15;;;;;;;;;;;;;;;;;;5111554;28;2127;-46
2023/04/26 09:30:02;;;;;;;;;;;;;;;;;;5093550;28;2503;-39
2023/04/26 09:32:49;;;;;;;;;;;;;;;;;;5112034;28;1995;-39
2023/04/26 09:35:20;;;;;;;;;;;;;;;;;;5111742;28;1910;-40
2023/04/26 09:38:00;;;;;;;;;;;;;;;;;;5111735;28;1915;-39
2023/04/26 09:40:42;;;;;;;;;;;;;;;;;;5111798;28;1995;-40
2023/04/26 09:43:17;;;;;;;;;;;;;;;;;;5111743;28;1876;-39
2023/04/26 09:45:45;;;;;;;;;;;;;;;;;;5111079;28;2156;-39
2023/04/26 09:48:24;;;;;;;;;;;;;;;;;;5111408;28;2046;-40
2023/04/26 09:50:53;;;;;;;;;;;;;;;;;;5111580;28;1966;-41
2023/04/26 09:53:27;;;;;;;;;;;;;;;;;;5104310;28;1964;-42
2023/04/26 09:55:55;;;;;;;;;;;;;;;;;;5111710;28;1951;-39
2023/04/26 09:58:22;;;;;;;;;;;;;;;;;;5111543;28;1896;-39
2023/04/26 10:00:50;;;;;;;;;;;;;;;;;;5111576;28;1934;-39
2023/04/26 10:03:21;;;;;;;;;;;;;;;;;;5111686;28;1719;-40
2023/04/26 10:05:49;;;;;;;;;;;;;;;;;;5111567;28;1687;-51
2023/04/26 10:08:16;;;;;;;;;;;;;;;;;;5111360;28;2048;-40
2023/04/26 10:10:44;;;;;;;;;;;;;;;;;;5111470;28;1837;-40
2023/04/26 10:13:12;;;;;;;;;;;;;;;;;;5111123;28;2013;-40
2023/04/26 10:15:42;;;;;;;;;;;;;;;;;;5111423;28;1884;-40
2023/04/26 10:18:10;;;;;;;;;;;;;;;;;;5111270;28;2029;-48
2023/04/26 10:20:42;;;;;;;;;;;;;;;;;;5111421;28;2045;-40
2023/04/26 10:23:18;;;;;;;;;;;;;;;;;;5111479;28;1920;-40
2023/04/26 10:25:46;;;;;;;;;;;;;;;;;;5110969;28;2057;-40
2023/04/26 10:28:13;;;;;;;;;;;;;;;;;;5111348;28;1969;-40
2023/04/26 10:30:54;;;;;;;;;;;;;;;;;;5111189;28;2045;-40
2023/04/26 10:33:22;;;;;;;;;;;;;;;;;;5111333;28;2324;-39
2023/04/26 10:36:09;;;;;;;;;;;;;;;;;;5111106;28;1993;-39
2023/04/26 10:38:37;;;;;;;;;;;;;;;;;;5111039;28;2042;-40
2023/04/26 10:41:22;;;;;;;;;;;;;;;;;;5111068;28;1951;-40
2023/04/26 10:43:49;;;;;;;;;;;;;;;;;;5111155;28;2147;-40
2023/04/26 10:46:37;;;;;;;;;;;;;;;;;;5111395;28;1971;-40
2023/04/26 10:49:22;;;;;;;;;;;;;;;;;;5111034;28;1951;-40
2023/04/26 10:52:10;;;;;;;;;;;;;;;;;;5110707;28;2029;-40
2023/04/26 10:54:54;;;;;;;;;;;;;;;;;;5096158;28;2029;-39
2023/04/26 10:57:21;;;;;;;;;;;;;;;;;;5090759;28;1897;-40
2023/04/26 11:00:21;;;;;;;;;;;;;;;;;;5094302;28;1970;-40
2023/04/26 11:02:48;;;;;;;;;;;;;;;;;;5071379;28;1823;-39
2023/04/26 11:05:42;;;;;;;;;;;;;;;;;;5094070;28;1867;-39
2023/04/26 11:08:16;;;;;;;;;;;;;;;;;;5094238;28;2017;-40
2023/04/26 11:10:51;;;;;;;;;;;;;;;;;;5094045;28;1897;-40
2023/04/26 11:13:19;;;;;;;;;;;;;;;;;;5094021;28;1973;-43
2023/04/26 11:15:46;;;;;;;;;;;;;;;;;;5093767;28;1924;-40
2023/04/26 11:18:17;;;;;;;;;;;;;;;;;;5094011;28;2044;-39
2023/04/26 11:20:45;;;;;;;;;;;;;;;;;;5093837;28;2072;-41
2023/04/26 11:23:12;;;;;;;;;;;;;;;;;;5094018;28;1835;-40
2023/04/26 11:25:39;;;;;;;;;;;;;;;;;;5093854;28;2121;-41
2023/04/26 11:28:06;;;;;;;;;;;;;;;;;;5094051;28;1988;-39
2023/04/26 11:30:33;;;;;;;;;;;;;;;;;;5093988;28;2037;-40
2023/04/26 11:33:03;;;;;;;;;;;;;;;;;;5093477;28;1952;-40
2023/04/26 11:35:34;;;;;;;;;;;;;;;;;;5093702;28;1881;-39
2023/04/26 11:38:04;;;;;;;;;;;;;;;;;;5093702;28;1994;-40
2023/04/26 11:40:31;;;;;;;;;;;;;;;;;;5093591;28;1957;-40
2023/04/26 11:43:05;;;;;;;;;;;;;;;;;;5093546;28;2060;-39
2023/04/26 11:45:33;;;;;;;;;;;;;;;;;;5093481;28;1941;-41
2023/04/26 11:48:02;;;;;;;;;;;;;;;;;;5093583;28;1944;-40
2023/04/26 11:50:31;;;;;;;;;;;;;;;;;;5093502;28;1918;-40
2023/04/26 11:52:58;;;;;;;;;;;;;;;;;;5093949;28;1906;-41
2023/04/26 11:55:33;;;;;;;;;;;;;;;;;;5113668;28;1993;-41
2023/04/26 11:58:02;;;;;;;;;;;;;;;;;;5113816;28;1688;-40
2023/04/26 12:00:30;;;;;;;;;;;;;;;;;;5113595;28;1936;-39
2023/04/26 12:03:03;;;;;;;;;;;;;;;;;;5113681;28;2167;-40
2023/04/26 12:05:30;;;;;;;;;;;;;;;;;;5113286;28;2254;-39
2023/04/26 12:07:59;;;;;;;;;;;;;;;;;;5113391;28;1984;-40
2023/04/26 12:10:35;;;;;;;;;;;;;;;;;;5113111;28;1931;-40
2023/04/26 12:13:03;;;;;;;;;;;;;;;;;;5113201;28;1974;-40
2023/04/26 12:15:31;;;;;;;;;;;;;;;;;;5113247;28;1989;-40
2023/04/26 12:18:00;;;;;;;;;;;;;;;;;;5113315;28;2033;-40
2023/04/26 12:20:28;;;;;;;;;;;;;;;;;;5113298;28;1864;-39
2023/04/26 12:22:59;;;;;;;;;;;;;;;;;;5113184;28;2092;-39
2023/04/26 12:25:27;;;;;;;;;;;;;;;;;;5113026;28;1878;-39
2023/04/26 12:27:55;;;;;;;;;;;;;;;;;;5112644;28;2125;-39
2023/04/26 12:30:22;;;;;;;;;;;;;;;;;;5112244;28;1986;-39
2023/04/26 12:33:00;;;;;;;;;;;;;;;;;;5113004;28;2117;-40
2023/04/26 12:35:41;;;;;;;;;;;;;;;;;;5113214;28;2034;-40
2023/04/26 12:38:09;;;;;;;;;;;;;;;;;;5094991;28;2221;-39
2023/04/26 12:40:36;;;;;;;;;;;;;;;;;;5113007;28;1735;-41
2023/04/26 12:43:03;;;;;;;;;;;;;;;;;;5112626;28;1916;-44
2023/04/26 12:45:31;;;;;;;;;;;;;;;;;;5112800;28;2268;-40
2023/04/26 12:47:58;;;;;;;;;;;;;;;;;;5112720;28;1754;-40
2023/04/26 12:50:25;;;;;;;;;;;;;;;;;;5112821;28;2049;-42
2023/04/26 12:52:53;;;;;;;;;;;;;;;;;;5112979;28;1948;-46
2023/04/26 12:55:20;;;;;;;;;;;;;;;;;;5112527;28;2094;-42
2023/04/26 12:57:47;;;;;;;;;;;;;;;;;;5112571;28;1969;-40
2023/04/26 13:00:16;;;;;;;;;;;;;;;;;;5112313;28;1862;-40
2023/04/26 13:02:43;;;;;;;;;;;;;;;;;;5112289;28;2002;-46
2023/04/26 13:05:11;;;;;;;;;;;;;;;;;;5094638;28;1886;-40
2023/04/26 13:07:39;;;;;;;;;;;;;;;;;;5112686;28;2224;-40
2023/04/26 13:10:07;;;;;;;;;;;;;;;;;;5112000;28;1939;-40
2023/04/26 13:12:36;;;;;;;;;;;;;;;;;;5112086;28;1977;-40
2023/04/26 13:15:04;;;;;;;;;;;;;;;;;;5112075;28;2348;-40
2023/04/26 13:17:31;;;;;;;;;;;;;;;;;;5112197;28;1995;-41
2023/04/26 13:19:59;;;;;;;;;;;;;;;;;;5111793;28;1992;-44
2023/04/26 13:22:26;;;;;;;;;;;;;;;;;;5111840;28;2014;-40
2023/04/26 13:24:53;;;;;;;;;;;;;;;;;;5112013;28;2138;-40
2023/04/26 13:27:20;;;;;;;;;;;;;;;;;;5112144;28;2149;-40
2023/04/26 13:29:47;;;;;;;;;;;;;;;;;;5112127;28;2032;-41
2023/04/26 13:32:14;;;;;;;;;;;;;;;;;;5111744;28;2240;-40
2023/04/26 13:34:44;;;;;;;;;;;;;;;;;;5112116;28;2075;-42
2023/04/26 13:37:11;;;;;;;;;;;;;;;;;;5093876;28;1864;-41
2023/04/26 13:39:39;;;;;;;;;;;;;;;;;;5111937;28;2045;-58
2023/04/26 13:42:06;;;;;;;;;;;;;;;;;;5111504;28;2126;-57
2023/04/26 13:44:34;;;;;;;;;;;;;;;;;;5111710;28;2224;-39
2023/04/26 13:47:01;;;;;;;;;;;;;;;;;;5112211;28;1913;-40
2023/04/26 13:49:28;;;;;;;;;;;;;;;;;;5112098;28;1910;-40
2023/04/26 13:51:56;;;;;;;;;;;;;;;;;;5111403;28;2007;-57
2023/04/26 13:54:26;;;;;;;;;;;;;;;;;;5098480;28;1969;-59
2023/04/26 13:56:54;;;;;;;;;;;;;;;;;;5091049;28;1884;-55
2023/04/26 13:59:21;;;;;;;;;;;;;;;;;;5091136;28;1873;-49
2023/04/26 14:01:48;;;;;;;;;;;;;;;;;;5091107;28;2102;-40
2023/04/26 14:04:17;;;;;;;;;;;;;;;;;;5091085;28;1955;-49
2023/04/26 14:06:45;;;;;;;;;;;;;;;;;;5091753;28;2055;-44
2023/04/26 14:09:12;;;;;;;;;;;;;;;;;;5091131;28;2171;-40
2023/04/26 14:11:39;;;;;;;;;;;;;;;;;;5091063;28;2093;-40
2023/04/26 14:14:07;;;;;;;;;;;;;;;;;;5090760;28;2134;-40
2023/04/26 14:16:36;;;;;;;;;;;;;;;;;;5090904;28;1910;-39
2023/04/26 14:19:04;;;;;;;;;;;;;;;;;;5090859;28;2093;-41
2023/04/26 14:21:32;;;;;;;;;;;;;;;;;;5090968;28;2413;-47
2023/04/26 14:23:59;;;;;;;;;;;;;;;;;;5091022;28;1897;-42
2023/04/26 14:26:26;;;;;;;;;;;;;;;;;;5090805;28;2097;-39
2023/04/26 14:28:53;;;;;;;;;;;;;;;;;;5090916;28;1969;-41
2023/04/26 14:31:23;;;;;;;;;;;;;;;;;;5091058;28;1955;-41
2023/04/26 14:33:50;;;;;;;;;;;;;;;;;;5094969;28;2067;-48
2023/04/26 14:36:17;;;;;;;;;;;;;;;;;;5095088;28;2025;-48
2023/04/26 14:38:44;;;;;;;;;;;;;;;;;;5094954;28;1973;-49
2023/04/26 14:41:15;;;;;;;;;;;;;;;;;;5094919;28;2040;-43
2023/04/26 14:43:44;;;;;;;;;;;;;;;;;;5094739;28;1774;-47
2023/04/26 14:46:12;;;;;;;;;;;;;;;;;;5094159;28;2101;-40
2023/04/26 14:48:39;;;;;;;;;;;;;;;;;;5094595;28;1805;-45
2023/04/26 14:51:06;;;;;;;;;;;;;;;;;;5094430;28;1902;-49
2023/04/26 14:53:34;;;;;;;;;;;;;;;;;;5100118;28;2010;-47
2023/04/26 14:56:01;;;;;;;;;;;;;;;;;;5114906;28;2128;-44
2023/04/26 14:58:28;;;;;;;;;;;;;;;;;;5114867;28;1977;-40
2023/04/26 15:00:55;;;;;;;;;;;;;;;;;;5114943;28;2020;-45
2023/04/26 15:03:23;;;;;;;;;;;;;;;;;;5114855;28;1940;-40
2023/04/26 15:05:50;;;;;;;;;;;;;;;;;;5114806;28;2084;-40
2023/04/26 15:08:17;;;;;;;;;;;;;;;;;;5114685;28;2023;-41
2023/04/26 15:10:45;;;;;;;;;;;;;;;;;;5114462;28;2037;-41
2023/04/26 15:13:14;;;;;;;;;;;;;;;;;;5114372;28;1985;-40
2023/04/26 15:15:44;;;;;;;;;;;;;;;;;;5114545;28;2184;-41
2023/04/26 15:18:15;;;;;;;;;;;;;;;;;;5097071;28;2042;-45
2023/04/26 15:20:48;;;;;;;;;;;;;;;;;;5096023;28;1935;-43
2023/04/26 15:23:19;;;;;;;;;;;;;;;;;;5114510;28;2083;-41
2023/04/26 15:25:49;;;;;;;;;;;;;;;;;;5114402;28;1925;-40
2023/04/26 15:28:26;;;;;;;;;;;;;;;;;;5114113;28;2144;-47
2023/04/26 15:31:10;;;;;;;;;;;;;;;;;;5096450;28;2002;-47
2023/04/26 15:33:41;;;;;;;;;;;;;;;;;;5114122;28;1909;-41
2023/04/26 15:36:11;;;;;;;;;;;;;;;;;;5113851;28;1963;-46
2023/04/26 15:38:46;;;;;;;;;;;;;;;;;;5113470;28;1883;-40
2023/04/26 15:41:31;;;;;;;;;;;;;;;;;;5113495;28;1841;-41
2023/04/26 15:44:04;;;;;;;;;;;;;;;;;;5113305;28;2037;-40
2023/04/26 15:46:39;;;;;;;;;;;;;;;;;;5113288;28;2035;-43
2023/04/26 15:49:30;;;;;;;;;;;;;;;;;;5113891;28;1838;-43
2023/04/26 15:52:04;;;;;;;;;;;;;;;;;;5113761;28;1945;-43
2023/04/26 15:54:36;;;;;;;;;;;;;;;;;;5099289;28;2088;-46
2023/04/26 15:57:09;;;;;;;;;;;;;;;;;;5093413;28;2060;-52
2023/04/26 15:59:41;;;;;;;;;;;;;;;;;;5093348;28;1771;-43
2023/04/26 16:02:12;;;;;;;;;;;;;;;;;;5099147;28;2078;-40
2023/04/26 16:04:39;;;;;;;;;;;;;;;;;;5113500;28;2135;-41
2023/04/26 16:07:06;;;;;;;;;;;;;;;;;;5113413;28;2104;-48
2023/04/26 16:09:34;;;;;;;;;;;;;;;;;;5112781;28;2146;-45
2023/04/26 16:12:02;;;;;;;;;;;;;;;;;;5113417;28;2134;-43
2023/04/26 16:14:30;;;;;;;;;;;;;;;;;;5113640;28;1980;-42
2023/04/26 16:16:57;;;;;;;;;;;;;;;;;;5113247;28;2004;-42
2023/04/26 16:19:28;;;;;;;;;;;;;;;;;;5113304;28;1912;-41
2023/04/26 16:21:55;;;;;;;;;;;;;;;;;;5113260;28;2062;-40
2023/04/26 16:24:23;;;;;;;;;;;;;;;;;;5113291;28;2143;-41
2023/04/26 16:26:50;;;;;;;;;;;;;;;;;;5113015;28;2063;-41
2023/04/26 16:29:17;;;;;;;;;;;;;;;;;;5112601;28;2045;-40
2023/04/26 16:31:44;;;;;;;;;;;;;;;;;;5112081;28;2145;-46
2023/04/26 16:34:11;;;;;;;;;;;;;;;;;;5112817;28;2023;-41
2023/04/26 16:36:39;;;;;;;;;;;;;;;;;;5112501;28;2085;-41
2023/04/26 16:39:07;;;;;;;;;;;;;;;;;;5112522;28;2244;-45
2023/04/26 16:41:34;;;;;;;;;;;;;;;;;;5112962;28;1848;-40
2023/04/26 16:44:02;;;;;;;;;;;;;;;;;;5111994;28;2139;-42
2023/04/26 16:46:29;;;;;;;;;;;;;;;;;;5112537;28;1935;-41
2023/04/26 16:48:56;;;;;;;;;;;;;;;;;;5112662;28;2127;-41
2023/04/26 16:51:23;;;;;;;;;;;;;;;;;;5112504;28;1854;-41
2023/04/26 16:53:50;;;;;;;;;;;;;;;;;;5112699;28;1978;-40
2023/04/26 16:56:17;;;;;;;;;;;;;;;;;;5111248;28;2071;-44
2023/04/26 16:58:45;;;;;;;;;;;;;;;;;;5112619;28;2167;-40
2023/04/26 17:01:12;;;;;;;;;;;;;;;;;;5111532;28;1902;-39
2023/04/26 17:03:40;;;;;;;;;;;;;;;;;;5112337;28;2155;-44
2023/04/26 17:06:08;;;;;;;;;;;;;;;;;;5112288;28;1812;-40
2023/04/26 17:08:36;;;;;;;;;;;;;;;;;;5112453;28;1931;-52
2023/04/26 17:11:03;;;;;;;;;;;;;;;;;;5112442;28;1960;-39
2023/04/26 17:13:32;;;;;;;;;;;;;;;;;;5112768;28;1910;-41
2023/04/26 17:15:59;;;;;;;;;;;;;;;;;;5112248;28;2242;-43
2023/04/26 17:18:26;;;;;;;;;;;;;;;;;;5112533;28;2169;-40